Time;durP1;ratioP1;P1;durP2;ratioP2;P2;SDS_P1;SDS_P2;PMS_P1;PMS_P2;Temp;Humidity;BMP_temperature;BMP_pressure;BME280_temperature;BME280_humidity;BME280_pressure;Samples;Min_cycle;Max_cycle;Signal;HPM_P1;HPM_P2
2022/07/07 00:00:34;;;;;;;5.93;3.25;;;16.40;98.40;;;;;;4668849;30;20399;-81
2022/07/07 00:03:00;;;;;;;6.25;2.88;;;16.20;98.90;;;;;;4667928;30;20033;-82
2022/07/07 00:05:25;;;;;;;5.28;2.67;;;16.20;98.90;;;;;;4653425;30;20050;-83
2022/07/07 00:07:51;;;;;;;7.63;2.85;;;16.10;99.10;;;;;;4668869;30;20370;-83
2022/07/07 00:10:17;;;;;;;7.82;3.15;;;16.00;99.10;;;;;;4668944;30;20069;-82
2022/07/07 00:12:43;;;;;;;5.97;2.65;;;16.00;99.30;;;;;;4668872;30;20542;-82
2022/07/07 00:15:09;;;;;;;5.13;2.75;;;16.00;99.50;;;;;;4653191;30;20046;-81
2022/07/07 00:17:35;;;;;;;5.45;3.20;;;15.90;99.40;;;;;;4668882;30;20022;-81
2022/07/07 00:20:00;;;;;;;6.43;2.92;;;15.90;99.90;;;;;;4653200;30;20053;-83
2022/07/07 00:22:26;;;;;;;6.15;2.97;;;15.90;99.90;;;;;;4667193;30;20124;-83
2022/07/07 00:24:52;;;;;;;6.68;2.92;;;15.80;99.80;;;;;;4669014;30;20034;-84
2022/07/07 00:27:18;;;;;;;4.40;2.80;;;15.80;99.90;;;;;;4668843;30;20026;-82
2022/07/07 00:29:44;;;;;;;5.13;2.67;;;15.70;99.90;;;;;;4668580;30;20042;-81
2022/07/07 00:32:11;;;;;;;6.72;3.45;;;15.70;99.90;;;;;;4666811;30;20124;-85
2022/07/07 00:34:39;;;;;;;8.55;3.50;;;15.60;99.90;;;;;;4668517;30;20363;-81
2022/07/07 00:37:05;;;;;;;7.32;3.38;;;16.20;99.90;;;;;;4668585;30;20030;-83
2022/07/07 00:39:31;;;;;;;5.13;2.97;;;15.50;99.90;;;;;;4668929;30;20060;-83
2022/07/07 00:41:57;;;;;;;7.18;3.30;;;15.40;99.90;;;;;;4653081;30;20467;-82
2022/07/07 00:44:23;;;;;;;9.38;3.25;;;15.50;99.90;;;;;;4668874;30;20038;-82
2022/07/07 00:46:54;;;;;;;7.50;2.90;;;15.50;99.90;;;;;;4653205;30;20283;-82
2022/07/07 00:49:21;;;;;;;5.35;2.85;;;15.50;99.90;;;;;;4653042;30;20073;-83
2022/07/07 00:51:47;;;;;;;6.80;2.83;;;15.50;99.90;;;;;;4652926;30;20038;-83
2022/07/07 00:54:13;;;;;;;5.63;2.97;;;15.40;99.90;;;;;;4668251;30;20120;-87
2022/07/07 00:56:39;;;;;;;7.45;3.28;;;15.50;99.90;;;;;;4668394;30;20034;-82
2022/07/07 00:59:06;;;;;;;6.38;3.33;;;15.50;99.90;;;;;;4652865;30;20042;-84
2022/07/07 01:01:42;;;;;;;7.32;3.13;;;15.50;99.90;;;;;;4668293;30;20034;-83
2022/07/07 01:04:13;;;;;;;5.88;2.92;;;15.50;99.90;;;;;;4668320;30;20026;-83
2022/07/07 01:06:42;;;;;;;7.05;2.83;;;15.40;99.90;;;;;;4652281;30;20041;-83
2022/07/07 01:09:08;;;;;;;5.95;3.00;;;15.40;99.90;;;;;;4667963;30;20060;-81
2022/07/07 01:11:45;;;;;;;7.97;3.63;;;15.40;99.90;;;;;;4652290;30;20066;-82
2022/07/07 01:14:11;;;;;;;6.20;2.97;;;15.40;99.90;;;;;;4667714;30;20042;-83
2022/07/07 01:16:36;;;;;;;6.03;3.03;;;15.50;99.90;;;;;;4652355;30;20061;-81
2022/07/07 01:19:02;;;;;;;7.30;3.30;;;17.40;99.90;;;;;;4667930;30;20038;-85
2022/07/07 01:21:31;;;;;;;7.40;3.22;;;15.40;99.90;;;;;;4667948;30;20554;-83
2022/07/07 01:23:56;;;;;;;5.45;3.13;;;15.40;99.90;;;;;;4667877;30;20511;-85
2022/07/07 01:26:26;;;;;;;5.95;2.78;;;15.30;99.90;;;;;;4652080;30;20069;-86
2022/07/07 01:28:52;;;;;;;5.90;3.17;;;15.20;99.90;;;;;;4652365;30;20046;-83
2022/07/07 01:31:18;;;;;;;6.50;3.30;;;15.20;99.90;;;;;;4667736;30;20038;-83
2022/07/07 01:33:44;;;;;;;6.78;3.15;;;15.10;99.90;;;;;;4652039;30;20385;-83
2022/07/07 01:36:13;;;;;;;7.90;3.22;;;15.10;99.90;;;;;;4667678;30;20300;-84
2022/07/07 01:38:39;;;;;;;5.10;2.85;;;15.00;99.90;;;;;;4651917;30;20026;-83
2022/07/07 01:41:12;;;;;;;6.93;3.08;;;15.00;99.90;;;;;;4652360;30;20057;-84
2022/07/07 01:43:37;;;;;;;5.97;2.83;;;14.90;99.90;;;;;;4667429;30;20037;-82
2022/07/07 01:46:03;;;;;;;6.97;3.42;;;14.90;99.90;;;;;;4667458;30;20289;-83
2022/07/07 01:48:29;;;;;;;6.05;2.90;;;15.00;99.90;;;;;;4651859;30;20385;-82
2022/07/07 01:50:55;;;;;;;9.35;3.53;;;15.20;99.90;;;;;;4651803;30;20480;-83
2022/07/07 01:53:20;;;;;;;8.02;3.70;;;14.90;99.90;;;;;;4667148;30;20061;-84
2022/07/07 01:55:46;;;;;;;7.18;3.17;;;14.90;99.90;;;;;;4665632;30;20042;-83
2022/07/07 01:58:13;;;;;;;8.25;3.53;;;14.80;99.90;;;;;;4667375;30;20030;-84
2022/07/07 02:00:39;;;;;;;7.68;3.70;;;14.80;99.90;;;;;;4666085;30;20445;-84
2022/07/07 02:03:05;;;;;;;6.07;2.97;;;14.80;99.90;;;;;;4667268;30;20879;-83
2022/07/07 02:05:30;;;;;;;6.47;3.05;;;14.90;99.90;;;;;;4667490;30;20037;-83
2022/07/07 02:07:56;;;;;;;8.73;3.00;;;14.90;99.90;;;;;;4667488;30;20407;-85
2022/07/07 02:13:06;;;;;;;;;;;14.90;99.90;;;;;;4669031;30;20061;-87
2022/07/07 02:15:32;;;;;;;7.07;3.38;;;14.60;99.90;;;;;;4667048;30;19976;-86
2022/07/07 02:17:58;;;;;;;7.32;3.67;;;14.60;99.90;;;;;;4668515;30;20110;-84
2022/07/07 02:20:25;;;;;;;7.05;3.08;;;14.70;99.90;;;;;;4667752;30;20359;-84
2022/07/07 02:22:50;;;;;;;6.88;3.58;;;14.80;99.90;;;;;;4667842;30;20197;-84
2022/07/07 02:25:17;;;;;;;8.13;3.60;;;14.70;99.90;;;;;;4651603;30;20553;-84
2022/07/07 02:27:43;;;;;;;7.93;2.75;;;14.70;99.90;;;;;;4654869;30;20228;-82
2022/07/07 02:30:09;;;;;;;6.45;2.78;;;14.60;99.90;;;;;;4655339;30;20279;-85
2022/07/07 02:32:35;;;;;;;5.65;2.75;;;14.60;99.90;;;;;;4654854;30;20030;-85
2022/07/07 02:35:01;;;;;;;5.93;3.15;;;14.70;99.90;;;;;;4668832;30;20042;-84
2022/07/07 02:37:28;;;;;;;5.75;2.70;;;14.60;99.90;;;;;;4655271;30;20383;-82
2022/07/07 02:39:54;;;;;;;6.57;3.40;;;14.70;99.90;;;;;;4671485;30;20581;-82
2022/07/07 02:42:20;;;;;;;7.88;2.92;;;14.60;99.90;;;;;;4672958;30;20295;-83
2022/07/07 02:44:46;;;;;;;8.85;3.50;;;14.70;99.90;;;;;;4675643;30;20033;-84
2022/07/07 02:47:11;;;;;;;6.05;3.45;;;14.70;99.90;;;;;;4672059;30;20426;-86
2022/07/07 02:49:37;;;;;;;7.32;3.13;;;14.50;99.90;;;;;;4670807;30;20112;-83
2022/07/07 02:52:04;;;;;;;8.02;3.55;;;14.50;99.90;;;;;;4654955;30;20610;-82
2022/07/07 02:54:31;;;;;;;5.75;2.95;;;14.40;99.90;;;;;;4669013;30;21046;-84
2022/07/07 02:56:57;;;;;;;9.60;3.97;;;14.30;99.90;;;;;;4654547;30;20030;-84
2022/07/07 02:59:23;;;;;;;6.45;3.17;;;;;;;;;;4654584;30;20045;-83
2022/07/07 03:01:49;;;;;;;7.45;3.22;;;14.20;99.90;;;;;;4654717;30;20078;-83
2022/07/07 03:04:16;;;;;;;6.25;2.92;;;14.20;99.90;;;;;;4669872;30;20352;-84
2022/07/07 03:06:41;;;;;;;6.13;3.42;;;14.20;99.90;;;;;;4668793;30;20446;-87
2022/07/07 03:09:08;;;;;;;6.80;3.50;;;14.20;99.90;;;;;;4654295;30;20356;-87
2022/07/07 03:11:36;;;;;;;6.45;3.10;;;14.40;99.90;;;;;;4654330;30;20034;-83
2022/07/07 03:14:02;;;;;;;6.43;3.83;;;14.30;99.90;;;;;;4669934;30;20096;-83
2022/07/07 03:16:29;;;;;;;5.25;3.08;;;14.30;99.90;;;;;;4669475;30;20065;-82
2022/07/07 03:18:54;;;;;;;5.90;2.90;;;14.30;99.90;;;;;;4669784;30;20339;-85
2022/07/07 03:21:21;;;;;;;6.15;3.58;;;14.40;99.90;;;;;;4669961;30;20034;-84
2022/07/07 03:23:46;;;;;;;9.23;4.15;;;14.50;99.90;;;;;;4654279;30;20045;-83
2022/07/07 03:26:12;;;;;;;5.15;3.05;;;14.50;99.90;;;;;;4654173;30;20247;-84
2022/07/07 03:28:38;;;;;;;6.75;3.05;;;14.60;99.90;;;;;;4654675;30;20209;-88
2022/07/07 03:31:04;;;;;;;5.43;3.00;;;14.50;99.90;;;;;;4654452;30;20042;-86
2022/07/07 03:33:29;;;;;;;7.05;3.55;;;14.40;99.90;;;;;;4668607;30;20137;-87
2022/07/07 03:35:55;;;;;;;5.80;3.85;;;14.30;99.90;;;;;;4669689;30;20080;-85
2022/07/07 03:38:21;;;;;;;5.95;2.85;;;14.30;99.90;;;;;;4653725;30;20065;-86
2022/07/07 03:40:47;;;;;;;10.43;3.60;;;14.20;99.90;;;;;;4654047;30;20050;-84
2022/07/07 03:43:12;;;;;;;6.07;3.22;;;14.10;99.90;;;;;;4654622;30;20042;-85
2022/07/07 03:45:41;;;;;;;7.13;3.70;;;14.20;99.90;;;;;;4669563;30;20041;-86
2022/07/07 03:48:20;;;;;;;7.45;3.03;;;14.10;99.90;;;;;;4669741;30;20030;-86
2022/07/07 03:50:46;;;;;;;7.22;3.67;;;14.20;99.90;;;;;;4669477;30;20053;-84
2022/07/07 03:53:12;;;;;;;5.93;3.03;;;14.10;99.90;;;;;;4669531;30;20038;-86
2022/07/07 03:55:37;;;;;;;8.27;3.53;;;14.00;99.90;;;;;;4669296;30;20123;-86
2022/07/07 03:58:03;;;;;;;8.50;3.53;;;;;;;;;;4669344;30;20041;-87
2022/07/07 04:00:29;;;;;;;7.60;4.00;;;14.10;99.90;;;;;;4669623;30;20041;-86
2022/07/07 04:02:55;;;;;;;6.95;3.70;;;14.10;99.90;;;;;;4669380;30;20026;-84
2022/07/07 04:05:21;;;;;;;9.40;3.78;;;11.40;99.90;;;;;;4669078;30;20091;-84
2022/07/07 04:07:47;;;;;;;5.07;3.10;;;13.40;99.90;;;;;;4669320;30;20478;-84
2022/07/07 04:10:12;;;;;;;7.70;3.70;;;14.20;99.90;;;;;;4653381;30;20054;-88
2022/07/07 04:12:41;;;;;;;6.93;3.70;;;14.30;99.90;;;;;;4667519;30;20113;-85
2022/07/07 04:15:13;;;;;;;9.32;3.80;;;13.30;99.90;;;;;;4668953;30;20046;-88
2022/07/07 04:17:39;;;;;;;6.45;3.70;;;14.40;99.90;;;;;;4667393;30;20644;-85
2022/07/07 04:20:05;;;;;;;6.45;3.50;;;14.50;99.90;;;;;;4668739;30;20386;-87
2022/07/07 04:22:33;;;;;;;6.95;3.47;;;14.50;99.90;;;;;;4668855;30;20665;-85
2022/07/07 04:24:59;;;;;;;7.15;3.65;;;14.40;99.90;;;;;;4654280;30;20117;-86
2022/07/07 04:27:25;;;;;;;8.57;3.15;;;14.40;99.90;;;;;;4668895;30;20129;-87
2022/07/07 04:29:50;;;;;;;7.22;3.70;;;14.50;99.90;;;;;;4669256;30;20300;-84
2022/07/07 04:32:16;;;;;;;6.50;3.60;;;15.30;99.90;;;;;;4670465;30;20148;-84
2022/07/07 04:34:42;;;;;;;8.02;3.35;;;14.50;99.90;;;;;;4668536;30;20043;-85
2022/07/07 04:37:08;;;;;;;13.50;4.45;;;14.60;99.90;;;;;;4668370;30;20101;-85
2022/07/07 04:39:33;;;;;;;7.93;3.30;;;14.60;99.90;;;;;;4668486;30;20037;-83
2022/07/07 04:42:02;;;;;;;8.60;3.53;;;14.70;99.90;;;;;;4652902;30;20247;-83
2022/07/07 04:44:31;;;;;;;11.05;4.30;;;14.70;99.90;;;;;;4652916;30;20141;-83
2022/07/07 04:47:04;;;;;;;7.25;3.92;;;14.90;99.90;;;;;;4652990;30;20125;-85
2022/07/07 04:49:31;;;;;;;5.65;3.20;;;14.90;99.90;;;;;;4651687;30;20046;-82
2022/07/07 04:51:57;;;;;;;6.35;3.50;;;15.00;99.90;;;;;;4668003;30;20350;-83
2022/07/07 04:54:22;;;;;;;5.97;3.72;;;15.00;99.90;;;;;;4652341;30;20046;-83
2022/07/07 04:56:48;;;;;;;7.53;3.97;;;15.00;99.90;;;;;;4652732;30;20290;-82
2022/07/07 04:59:15;;;;;;;6.70;2.88;;;15.00;99.90;;;;;;4652556;30;20037;-84
2022/07/07 05:01:41;;;;;;;5.47;2.72;;;15.00;99.90;;;;;;4652906;30;20047;-83
2022/07/07 05:04:06;;;;;;;7.20;3.72;;;15.20;99.90;;;;;;4652423;30;20034;-83
2022/07/07 05:06:32;;;;;;;10.43;3.03;;;15.20;99.90;;;;;;4666776;30;20420;-85
2022/07/07 05:08:59;;;;;;;8.48;4.55;;;15.10;99.90;;;;;;4667937;30;20423;-83
2022/07/07 05:11:25;;;;;;;10.20;5.00;;;15.40;99.90;;;;;;4652583;30;20030;-83
2022/07/07 05:14:03;;;;;;;16.05;5.95;;;15.50;99.90;;;;;;4652430;30;20030;-88
2022/07/07 05:16:30;;;;;;;10.00;5.25;;;15.60;99.90;;;;;;4652617;30;20255;-81
2022/07/07 05:18:56;;;;;;;8.25;4.43;;;15.70;99.90;;;;;;4652499;30;20090;-84
2022/07/07 05:21:21;;;;;;;9.40;4.25;;;15.80;99.90;;;;;;4652544;30;20038;-83
2022/07/07 05:23:47;;;;;;;15.90;8.18;;;15.90;99.90;;;;;;4668207;30;20449;-82
2022/07/07 05:26:13;;;;;;;10.00;5.47;;;15.90;99.90;;;;;;4668454;30;20112;-83
2022/07/07 05:28:42;;;;;;;7.50;4.35;;;16.00;99.90;;;;;;4667939;30;20033;-82
2022/07/07 05:31:13;;;;;;;9.10;4.78;;;16.00;99.90;;;;;;4668168;30;20065;-84
2022/07/07 05:33:39;;;;;;;6.43;3.50;;;16.10;99.80;;;;;;4689816;25;20065;-83
2022/07/07 05:36:08;;;;;;;6.60;3.53;;;16.30;99.80;;;;;;4652101;30;20359;-86
2022/07/07 05:38:37;;;;;;;8.32;4.63;;;16.30;99.90;;;;;;4651884;30;20022;-86
2022/07/07 05:41:03;;;;;;;7.00;3.70;;;16.30;99.90;;;;;;4651906;30;20076;-84
2022/07/07 05:43:29;;;;;;;10.68;4.40;;;16.40;99.80;;;;;;4652364;30;20042;-84
2022/07/07 05:46:01;;;;;;;11.95;3.70;;;16.60;99.40;;;;;;4721367;25;20446;-82
2022/07/07 05:48:27;;;;;;;8.52;4.13;;;16.80;99.10;;;;;;4668672;30;20030;-82
2022/07/07 05:50:53;;;;;;;5.90;3.50;;;;;;;;;;4684733;30;20052;-84
2022/07/07 05:53:31;;;;;;;6.90;3.47;;;17.10;98.20;;;;;;4684464;30;20302;-84
2022/07/07 05:55:57;;;;;;;6.88;4.00;;;17.20;98.60;;;;;;4668849;30;20034;-85
2022/07/07 05:58:24;;;;;;;6.82;3.20;;;17.30;98.20;;;;;;4683182;30;20030;-82
2022/07/07 06:03:20;;;;;;;9.98;4.07;;;17.60;97.70;;;;;;4666123;30;20095;-83
2022/07/07 06:05:46;;;;;;;6.57;3.58;;;17.70;97.40;;;;;;4651662;30;20040;-82
2022/07/07 06:08:12;;;;;;;7.97;3.58;;;17.60;97.00;;;;;;4651112;30;20034;-84
2022/07/07 06:10:47;;;;;;;9.68;4.15;;;17.80;97.10;;;;;;4651825;30;20511;-82
2022/07/07 06:13:31;;;;;;;6.35;3.53;;;17.90;96.80;;;;;;4651202;30;20096;-83
2022/07/07 06:15:56;;;;;;;7.28;4.60;;;18.40;97.00;;;;;;4666658;30;20323;-82
2022/07/07 06:18:33;;;;;;;8.38;4.30;;;18.20;96.30;;;;;;4666973;30;20511;-83
2022/07/07 06:20:58;;;;;;;7.68;4.07;;;18.30;96.50;;;;;;4666295;30;20407;-83
2022/07/07 06:23:24;;;;;;;9.82;4.45;;;18.50;96.40;;;;;;4650859;30;20041;-82
2022/07/07 06:25:53;;;;;;;9.10;4.65;;;18.60;96.30;;;;;;4650980;30;20697;-83
2022/07/07 06:28:19;;;;;;;8.48;4.25;;;18.80;95.70;;;;;;4666577;30;20112;-82
2022/07/07 06:30:44;;;;;;;6.28;3.45;;;19.00;94.70;;;;;;4666915;30;20291;-85
2022/07/07 06:33:10;;;;;;;8.43;4.28;;;18.90;95.10;;;;;;4666478;30;20459;-83
2022/07/07 06:35:36;;;;;;;6.70;3.85;;;19.10;95.00;;;;;;4666482;30;20034;-82
2022/07/07 06:38:02;;;;;;;9.73;3.88;;;19.20;94.80;;;;;;4651033;30;20050;-82
2022/07/07 06:40:28;;;;;;;7.63;3.88;;;19.30;94.80;;;;;;4666582;30;20069;-83
2022/07/07 06:42:53;;;;;;;8.30;3.92;;;19.40;94.60;;;;;;4666585;30;20088;-84
2022/07/07 06:45:19;;;;;;;7.28;3.40;;;19.30;94.50;;;;;;4666631;30;20240;-83
2022/07/07 06:47:45;;;;;;;8.57;4.22;;;18.10;94.00;;;;;;4666505;30;20109;-83
2022/07/07 06:50:11;;;;;;;8.07;4.72;;;19.80;93.70;;;;;;4651262;30;20058;-83
2022/07/07 06:52:37;;;;;;;8.43;4.53;;;19.70;94.10;;;;;;4666916;30;20312;-82
2022/07/07 07:07:28;;;;;;;8.88;4.55;;;19.70;92.90;;;;;;4596556;31;20336;-83
2022/07/07 07:09:55;;;;;;;9.48;5.32;;;20.80;92.70;;;;;;4582597;31;20127;-82
2022/07/07 07:12:21;;;;;;;7.03;3.95;;;20.60;92.40;;;;;;4625437;30;20051;-82
2022/07/07 07:14:56;;;;;;;7.15;4.10;;;20.70;92.40;;;;;;4640797;30;20602;-84
2022/07/07 07:17:22;;;;;;;8.38;4.20;;;21.50;91.60;;;;;;4654132;30;20026;-83
2022/07/07 07:19:48;;;;;;;8.98;3.63;;;20.90;91.80;;;;;;4654300;30;20216;-83
2022/07/07 07:22:13;;;;;;;6.90;4.22;;;20.90;91.60;;;;;;4669841;30;20030;-84
2022/07/07 07:24:39;;;;;;;9.45;4.13;;;21.10;91.20;;;;;;4670264;30;20037;-82
2022/07/07 07:27:21;;;;;;;6.60;3.78;;;21.10;90.80;;;;;;4671413;30;20038;-85
2022/07/07 07:29:46;;;;;;;6.65;4.05;;;19.60;90.10;;;;;;4670664;30;20038;-83
2022/07/07 07:32:12;;;;;;;7.40;3.80;;;21.40;90.50;;;;;;4655170;30;20534;-83
2022/07/07 07:34:38;;;;;;;7.60;4.15;;;21.30;90.30;;;;;;4669883;30;20502;-85
2022/07/07 07:37:13;;;;;;;8.75;4.18;;;21.40;90.50;;;;;;4654199;30;20022;-83
2022/07/07 07:39:39;;;;;;;10.90;3.75;;;21.60;90.50;;;;;;4669888;30;20571;-84
2022/07/07 07:42:05;;;;;;;7.47;4.05;;;21.70;90.40;;;;;;4654699;30;20343;-84
2022/07/07 07:47:15;;;;;;;8.00;3.92;;;22.10;90.00;;;;;;4687241;25;20149;-84
2022/07/07 07:49:43;;;;;;;6.20;3.50;;;22.50;89.10;;;;;;4686158;30;20128;-84
2022/07/07 07:52:12;;;;;;;7.38;4.00;;;22.20;88.90;;;;;;4685687;30;20226;-84
2022/07/07 07:54:38;;;;;;;8.55;4.40;;;22.10;88.50;;;;;;4686340;30;20045;-83
2022/07/07 07:57:04;;;;;;;7.82;3.92;;;22.50;88.30;;;;;;4670410;30;20033;-83
2022/07/07 07:59:30;;;;;;;7.13;3.88;;;22.60;87.90;;;;;;4686076;30;20068;-84
2022/07/07 08:01:56;;;;;;;10.00;4.05;;;22.80;86.70;;;;;;4670501;30;20503;-84
2022/07/07 08:04:21;;;;;;;7.32;4.22;;;22.90;85.90;;;;;;4686510;30;20061;-85
2022/07/07 08:06:47;;;;;;;7.32;3.55;;;23.00;84.90;;;;;;4684768;30;20049;-83
2022/07/07 08:09:13;;;;;;;7.47;4.00;;;23.00;84.70;;;;;;4686296;30;20227;-84
2022/07/07 08:11:39;;;;;;;7.65;4.22;;;23.10;85.00;;;;;;4670752;30;20517;-82
2022/07/07 08:14:04;;;;;;;10.18;4.30;;;23.40;85.20;;;;;;4670214;30;20041;-83
2022/07/07 08:16:30;;;;;;;10.50;4.97;;;23.20;86.00;;;;;;4686363;30;20103;-85
2022/07/07 08:18:56;;;;;;;8.57;3.78;;;23.40;85.00;;;;;;4670854;30;20044;-85
2022/07/07 08:21:22;;;;;;;8.63;4.45;;;23.80;84.50;;;;;;4686545;30;20041;-81
2022/07/07 08:23:48;;;;;;;9.32;4.05;;;23.90;82.70;;;;;;4685314;30;20030;-84
2022/07/07 08:26:13;;;;;;;9.75;5.47;;;23.90;82.80;;;;;;4670560;30;20119;-83
2022/07/07 08:28:40;;;;;;;8.55;4.35;;;23.80;83.60;;;;;;4686016;30;20056;-83
2022/07/07 08:31:09;;;;;;;8.07;4.03;;;24.00;83.00;;;;;;4686283;30;20026;-82
2022/07/07 08:33:35;;;;;;;8.27;3.75;;;24.30;81.70;;;;;;4670672;30;20599;-83
2022/07/07 08:36:01;;;;;;;9.10;3.58;;;24.90;81.10;;;;;;4670511;30;20243;-84
2022/07/07 08:38:27;;;;;;;6.45;3.55;;;24.60;79.70;;;;;;4670202;30;20033;-84
2022/07/07 08:40:53;;;;;;;9.93;4.35;;;24.60;79.50;;;;;;4671116;30;20037;-83
2022/07/07 08:43:29;;;;;;;7.63;3.85;;;24.50;79.50;;;;;;4686793;30;20060;-85
2022/07/07 08:45:58;;;;;;;9.15;4.53;;;24.70;78.60;;;;;;4670460;30;20235;-84
2022/07/07 08:48:24;;;;;;;9.32;4.47;;;24.90;78.80;;;;;;4670382;30;20342;-83
2022/07/07 08:50:49;;;;;;;8.88;3.88;;;24.70;79.30;;;;;;4670359;30;20029;-83
2022/07/07 08:53:18;;;;;;;6.07;3.53;;;24.90;77.70;;;;;;4670847;30;20231;-83
2022/07/07 08:55:45;;;;;;;6.63;3.30;;;24.90;76.20;;;;;;4687050;30;20034;-84
2022/07/07 08:58:12;;;;;;;7.80;3.85;;;24.90;75.20;;;;;;4686979;30;20060;-83
2022/07/07 09:00:38;;;;;;;5.45;2.83;;;24.90;75.50;;;;;;4671498;30;20033;-84
2022/07/07 09:03:05;;;;;;;8.52;3.33;;;25.00;73.20;;;;;;4686267;30;20418;-83
2022/07/07 09:05:37;;;;;;;5.28;3.08;;;24.90;74.50;;;;;;4686493;30;20029;-83
2022/07/07 09:08:20;;;;;;;7.53;3.40;;;24.80;73.20;;;;;;4670904;30;20119;-82
2022/07/07 09:10:46;;;;;;;5.85;2.90;;;25.00;73.30;;;;;;4685387;30;20416;-82
2022/07/07 09:13:27;;;;;;;8.95;3.75;;;25.30;71.20;;;;;;4670100;30;20313;-85
2022/07/07 09:16:01;;;;;;;4.75;2.53;;;25.40;68.80;;;;;;4669130;30;20358;-87
2022/07/07 09:18:47;;;;;;;6.15;2.60;;;25.60;68.70;;;;;;4685289;30;20034;-82
2022/07/07 09:21:27;;;;;;;5.78;3.15;;;25.80;68.80;;;;;;4684637;30;20622;-82
2022/07/07 09:23:54;;;;;;;5.50;2.80;;;25.70;66.00;;;;;;4684889;30;20040;-82
2022/07/07 09:26:41;;;;;;;10.30;3.60;;;25.70;66.60;;;;;;4668948;30;20124;-85
2022/07/07 09:29:13;;;;;;;4.05;2.03;;;26.10;66.80;;;;;;4684627;30;20550;-83
2022/07/07 09:32:00;;;;;;;4.55;2.80;;;26.20;65.70;;;;;;4668714;30;20046;-83
2022/07/07 09:34:30;;;;;;;5.78;2.60;;;26.20;65.60;;;;;;4684920;30;20075;-84
2022/07/07 09:39:46;;;;;;;6.40;3.13;;;25.50;65.60;;;;;;4684981;30;20041;-83
2022/07/07 09:42:19;;;;;;;5.20;2.45;;;25.50;66.80;;;;;;4684613;30;20049;-83
2022/07/07 09:44:47;;;;;;;5.28;2.80;;;25.70;66.80;;;;;;4685027;30;20315;-82
2022/07/07 09:47:21;;;;;;;5.82;2.80;;;25.80;66.90;;;;;;4684551;30;20243;-85
2022/07/07 09:50:11;;;;;;;5.93;3.08;;;26.00;64.70;;;;;;4669133;30;20294;-84
2022/07/07 09:52:40;;;;;;;6.47;2.55;;;25.90;65.30;;;;;;4684512;30;20038;-84
2022/07/07 09:55:09;;;;;;;6.75;2.38;;;26.10;62.70;;;;;;4684351;30;20533;-83
2022/07/07 09:57:36;;;;;;;5.78;2.50;;;26.40;60.00;;;;;;4669133;30;20506;-83
2022/07/07 10:00:11;;;;;;;5.97;2.47;;;26.40;59.40;;;;;;4684746;30;20033;-85
2022/07/07 10:02:37;;;;;;;5.93;2.38;;;26.80;59.20;;;;;;4669398;30;20037;-84
2022/07/07 10:05:05;;;;;;;4.07;1.98;;;27.00;59.50;;;;;;4669061;30;20033;-82
2022/07/07 10:07:44;;;;;;;3.55;1.48;;;27.10;55.60;;;;;;4668702;30;20042;-83
2022/07/07 10:10:12;;;;;;;2.75;1.52;;;27.30;49.40;;;;;;4684261;30;20679;-84
2022/07/07 10:12:45;;;;;;;2.33;1.20;;;27.40;50.00;;;;;;4684538;30;20064;-84
2022/07/07 10:15:11;;;;;;;;;;;27.90;49.10;;;;;;4669388;30;20430;-85
2022/07/07 10:23:29;;;;;;;2.53;1.20;;;28.40;48.60;;;;;;4667075;30;20076;-84
2022/07/07 10:26:05;;;;;;;2.05;1.17;;;28.60;47.00;;;;;;4667223;30;20026;-81
2022/07/07 10:28:54;;;;;;;2.95;1.20;;;29.60;44.80;;;;;;4667408;30;20042;-83
2022/07/07 10:31:37;;;;;;;2.65;1.45;;;28.90;44.20;;;;;;4651596;30;20065;-83
2022/07/07 10:34:26;;;;;;;3.38;1.20;;;29.10;45.10;;;;;;4651410;30;20129;-82
2022/07/07 10:50:38;;;;;;;1.17;1.08;;;30.50;43.40;;;;;;4670648;30;20517;-84
2022/07/07 10:53:45;;;;;;;5.47;1.40;;;30.80;42.80;;;;;;4670049;30;20075;-84
2022/07/07 11:00:25;;;;;;;2.97;1.48;;;30.10;41.00;;;;;;4670145;30;20605;-87
2022/07/07 11:03:16;;;;;;;3.05;1.20;;;31.70;42.00;;;;;;4654233;30;20223;-84
2022/07/07 11:12:38;;;;;;;1.70;1.17;;;30.60;40.50;;;;;;4754674;25;20763;-83
2022/07/07 11:15:15;;;;;;;1.58;1.25;;;31.30;39.90;;;;;;4668028;30;20050;-84
2022/07/07 11:17:56;;;;;;;1.30;0.90;;;31.60;39.70;;;;;;4654418;30;20053;-85
2022/07/07 11:20:27;;;;;;;1.58;1.20;;;31.30;40.40;;;;;;4669882;30;20215;-83
2022/07/07 11:22:54;;;;;;;2.65;1.20;;;31.30;39.30;;;;;;4670586;30;20227;-85
2022/07/07 11:25:26;;;;;;;2.33;0.90;;;31.90;39.60;;;;;;4655329;30;20042;-82
2022/07/07 11:31:05;;;;;;;2.72;1.30;;;31.70;39.00;;;;;;4669527;30;19937;-84
2022/07/07 11:33:34;;;;;;;2.45;1.20;;;31.80;40.30;;;;;;4670105;30;20117;-82
2022/07/07 11:36:15;;;;;;;3.17;1.20;;;32.30;41.70;;;;;;4654305;30;20732;-81
2022/07/07 11:38:44;;;;;;;1.85;1.08;;;32.80;38.90;;;;;;4670233;30;20034;-83
2022/07/07 11:41:10;;;;;;;1.75;1.10;;;33.00;38.70;;;;;;4653697;30;20085;-84
2022/07/07 11:43:35;;;;;;;1.20;0.95;;;33.30;38.00;;;;;;4669934;30;20510;-82
2022/07/07 11:46:03;;;;;;;1.33;1.00;;;33.40;38.30;;;;;;4669920;30;20235;-82
2022/07/07 11:48:47;;;;;;;3.53;1.00;;;34.00;38.40;;;;;;4655488;30;20365;-83
2022/07/07 11:51:35;;;;;;;1.30;1.00;;;34.50;37.80;;;;;;4670908;30;20030;-82
2022/07/07 11:54:05;;;;;;;1.63;1.05;;;34.60;36.30;;;;;;4654745;30;20435;-84
2022/07/07 11:56:35;;;;;;;1.23;0.90;;;35.10;37.90;;;;;;4670661;30;20038;-83
2022/07/07 11:59:02;;;;;;;1.58;0.90;;;35.50;37.50;;;;;;4654306;30;20522;-82
2022/07/07 12:01:36;;;;;;;1.42;1.08;;;35.80;36.30;;;;;;4654379;30;20458;-83
2022/07/07 12:04:16;;;;;;;1.25;0.90;;;36.10;35.20;;;;;;4669414;30;20306;-84
2022/07/07 12:06:43;;;;;;;1.58;1.00;;;36.50;34.00;;;;;;4654172;30;20084;-82
2022/07/07 12:09:10;;;;;;;0.85;0.80;;;36.30;33.90;;;;;;4669645;30;20377;-82
2022/07/07 12:11:40;;;;;;;1.55;0.98;;;36.20;34.00;;;;;;4650709;30;20543;-81
2022/07/07 12:14:12;;;;;;;4.65;1.20;;;36.20;33.70;;;;;;4652112;30;20038;-84
2022/07/07 12:16:43;;;;;;;4.68;1.90;;;35.40;33.40;;;;;;4649735;30;20039;-81
2022/07/07 12:19:14;;;;;;;1.92;1.23;;;35.00;35.90;;;;;;4650001;30;20038;-83
2022/07/07 12:21:45;;;;;;;2.78;1.20;;;35.60;35.40;;;;;;4651890;30;20483;-82
2022/07/07 12:24:16;;;;;;;2.10;1.00;;;36.00;36.00;;;;;;4650052;30;20547;-84
2022/07/07 12:26:49;;;;;;;1.77;1.00;;;36.50;34.30;;;;;;4651715;30;20031;-82
2022/07/07 12:29:20;;;;;;;1.08;0.80;;;36.60;34.50;;;;;;4651622;30;20436;-82
2022/07/07 12:31:48;;;;;;;1.77;0.90;;;37.30;33.10;;;;;;4651343;30;20502;-82
2022/07/07 12:34:16;;;;;;;0.98;0.80;;;37.60;33.60;;;;;;4650051;30;20417;-83
2022/07/07 12:36:43;;;;;;;1.75;1.00;;;38.10;34.00;;;;;;4650314;30;20474;-84
2022/07/07 12:39:09;;;;;;;1.75;1.05;;;38.00;32.70;;;;;;4651534;30;20030;-81
2022/07/07 12:41:40;;;;;;;1.23;1.00;;;37.90;32.60;;;;;;4651309;30;20045;-83
2022/07/07 12:44:15;;;;;;;1.48;0.93;;;37.20;32.70;;;;;;4651491;30;20034;-82
2022/07/07 12:46:42;;;;;;;3.35;1.25;;;37.20;33.80;;;;;;4650031;30;20045;-82
2022/07/07 12:49:08;;;;;;;1.98;1.05;;;37.60;33.30;;;;;;4650282;30;20133;-82
2022/07/07 12:51:37;;;;;;;4.55;2.05;;;38.20;32.70;;;;;;4650458;30;20042;-82
2022/07/07 12:54:05;;;;;;;1.20;0.95;;;40.10;33.20;;;;;;4651896;30;20038;-81
2022/07/07 12:56:36;;;;;;;1.65;0.90;;;38.60;31.80;;;;;;4649909;30;20038;-82
2022/07/07 12:59:15;;;;;;;1.60;1.02;;;39.00;32.40;;;;;;4651304;30;20106;-81
2022/07/07 13:01:47;;;;;;;2.50;1.00;;;39.60;32.60;;;;;;4649209;30;20447;-81
2022/07/07 13:04:13;;;;;;;2.63;1.10;;;39.30;32.50;;;;;;4649525;30;20095;-82
2022/07/07 13:06:39;;;;;;;1.65;1.20;;;39.80;32.20;;;;;;4649685;30;20038;-83
2022/07/07 13:09:06;;;;;;;2.15;1.08;;;39.90;32.00;;;;;;4649321;30;20030;-81
2022/07/07 13:11:32;;;;;;;1.48;1.00;;;38.80;32.30;;;;;;4648875;30;20674;-82
2022/07/07 13:13:57;;;;;;;1.95;1.00;;;38.20;33.50;;;;;;4650816;30;20038;-84
2022/07/07 13:16:23;;;;;;;2.72;1.08;;;38.20;32.80;;;;;;4649932;30;20327;-83
2022/07/07 13:18:49;;;;;;;2.15;1.20;;;38.40;33.00;;;;;;4652538;30;20052;-82
2022/07/07 13:21:15;;;;;;;1.48;1.00;;;37.70;32.70;;;;;;4652201;30;20043;-82
2022/07/07 13:23:41;;;;;;;4.22;1.20;;;36.30;33.70;;;;;;4649586;30;20031;-82
2022/07/07 13:26:06;;;;;;;2.20;1.27;;;35.50;34.60;;;;;;4649905;30;20511;-82
2022/07/07 13:28:34;;;;;;;4.45;1.98;;;34.70;35.10;;;;;;4649725;30;20407;-82
2022/07/07 13:31:01;;;;;;;1.50;1.00;;;34.00;35.90;;;;;;4651005;30;20071;-81
2022/07/07 13:33:29;;;;;;;2.22;1.20;;;33.50;36.70;;;;;;4653061;30;20045;-82
2022/07/07 13:36:02;;;;;;;2.28;1.23;;;33.40;37.00;;;;;;4650194;30;20096;-85
2022/07/07 13:38:31;;;;;;;2.95;1.38;;;33.20;36.70;;;;;;4655925;30;20058;-81
2022/07/07 13:40:57;;;;;;;2.85;1.50;;;33.30;36.80;;;;;;4658933;30;20475;-84
2022/07/07 13:43:26;;;;;;;3.00;1.33;;;33.50;37.50;;;;;;4651163;30;20187;-83
2022/07/07 13:46:02;;;;;;;2.92;1.10;;;33.60;37.00;;;;;;4647459;30;20050;-85
2022/07/07 13:48:28;;;;;;;2.08;1.08;;;33.80;37.00;;;;;;4635254;30;20116;-84
2022/07/07 13:50:54;;;;;;;4.30;1.50;;;33.80;36.50;;;;;;4634440;30;20413;-82